ADDS METAR Data INFO
IDs: Format: Raw Decoded Include TAF

Data at: 1136 UTC 23 Jun 2018

METAR for:KBOW (Bartow Muni, FL, US)
Text:KBOW 231130Z 24004KT 10SM SKC 25/24 A3002
Temperature: 25.0°C ( 77°F)
Dewpoint: 24.0°C ( 75°F) [RH = 94%]
Pressure (altimeter):30.02 inches Hg (1016.7 mb)
Winds:from the WSW (240 degrees) at 5 MPH (4 knots; 2.1 m/s)
Visibility:10 or more sm (16+ km)
Ceiling:at least 12,000 feet AGL
Clouds:clear skies